createdAt,value
2024-01-01T00:00:15.082Z,15.70
2024-01-01T00:01:18.028Z,15.00
2024-01-01T00:02:20.163Z,16.33
2024-01-01T00:03:22.175Z,18.00
2024-01-01T00:04:25.662Z,20.60
2024-01-01T00:05:27.746Z,17.70
2024-01-01T00:06:30.491Z,17.40
2024-01-01T00:07:32.711Z,20.65
2024-01-01T00:08:34.906Z,20.80
2024-01-01T00:09:36.973Z,20.23
2024-01-01T00:10:38.892Z,19.50
2024-01-01T00:11:43.534Z,20.75
2024-01-01T00:12:47.740Z,21.23
2024-01-01T00:13:49.772Z,20.83
2024-01-01T00:14:52.445Z,19.90
2024-01-01T00:15:54.507Z,20.50
2024-01-01T00:16:58.084Z,19.33
2024-01-01T00:18:00.597Z,18.80
2024-01-01T00:19:02.673Z,16.02
2024-01-01T00:20:05.511Z,15.15
2024-01-01T00:21:07.715Z,16.73
2024-01-01T00:22:09.781Z,15.20
2024-01-01T00:23:11.904Z,14.60
2024-01-01T00:24:13.844Z,14.90
2024-01-01T00:25:15.967Z,14.38
2024-01-01T00:26:18.423Z,13.85
2024-01-01T00:27:23.111Z,15.90
2024-01-01T00:28:25.111Z,15.77
2024-01-01T00:29:33.565Z,16.08
2024-01-01T00:30:39.742Z,15.38
2024-01-01T00:31:44.135Z,15.27
2024-01-01T00:32:46.270Z,15.82
2024-01-01T00:33:49.228Z,16.00
2024-01-01T00:34:51.328Z,15.68
2024-01-01T00:35:53.309Z,13.83
2024-01-01T00:36:55.143Z,14.15
2024-01-01T00:37:57.285Z,13.05
2024-01-01T00:38:59.841Z,12.20
2024-01-01T00:40:05.093Z,11.40
2024-01-01T00:41:15.698Z,12.82
2024-01-01T00:42:17.645Z,11.60
2024-01-01T00:43:19.550Z,11.45
2024-01-01T00:44:21.568Z,10.40
2024-01-01T00:45:27.148Z,11.05
2024-01-01T00:46:34.882Z,9.63
2024-01-01T00:47:37.175Z,8.90
2024-01-01T00:48:39.376Z,9.75
2024-01-01T00:49:41.490Z,8.20
2024-01-01T00:50:43.814Z,8.80
2024-01-01T00:51:46.126Z,8.52
2024-01-01T00:52:48.982Z,7.85
2024-01-01T00:53:51.090Z,8.15
2024-01-01T00:54:53.705Z,7.55
2024-01-01T00:55:55.744Z,6.40
2024-01-01T00:56:58.533Z,5.97
2024-01-01T00:58:00.587Z,6.72
2024-01-01T00:59:02.658Z,7.18
2024-01-01T01:00:06.046Z,7.25
2024-01-01T01:01:11.111Z,6.10
2024-01-01T01:02:13.970Z,6.65
2024-01-01T01:03:16.088Z,5.65
2024-01-01T01:04:18.137Z,5.78
2024-01-01T01:05:20.920Z,6.10
2024-01-01T01:06:25.306Z,5.72
2024-01-01T01:07:27.756Z,5.85
2024-01-01T01:08:29.729Z,5.72
2024-01-01T01:09:31.935Z,5.53
2024-01-01T01:10:33.965Z,5.05
2024-01-01T01:11:37.059Z,5.43
2024-01-01T01:12:39.047Z,5.72
2024-01-01T01:13:41.147Z,5.57
2024-01-01T01:14:43.411Z,5.10
2024-01-01T01:15:45.462Z,5.40
2024-01-01T01:16:47.423Z,5.30
2024-01-01T01:17:49.481Z,5.18
2024-01-01T01:18:51.867Z,5.15
2024-01-01T01:19:53.814Z,5.22
2024-01-01T01:20:55.899Z,5.40
2024-01-01T01:21:58.148Z,4.60
2024-01-01T01:23:00.322Z,4.70
2024-01-01T01:24:02.921Z,5.47
2024-01-01T01:25:05.194Z,4.95
2024-01-01T01:26:07.308Z,4.70
2024-01-01T01:27:09.313Z,4.30
2024-01-01T01:28:11.508Z,3.92
2024-01-01T01:29:13.630Z,3.78
2024-01-01T01:30:15.665Z,4.20
2024-01-01T01:31:17.620Z,4.47
2024-01-01T01:32:19.695Z,4.10
2024-01-01T01:33:22.147Z,4.65
2024-01-01T01:34:24.916Z,5.43
2024-01-01T01:35:26.952Z,4.78
2024-01-01T01:36:29.077Z,4.80
2024-01-01T01:37:32.745Z,3.80
2024-01-01T01:38:37.184Z,3.47
2024-01-01T01:39:39.129Z,5.07
2024-01-01T01:40:41.096Z,3.50
2024-01-01T01:41:43.151Z,3.75
2024-01-01T01:42:48.531Z,4.13
2024-01-01T01:43:51.328Z,4.68
2024-01-01T01:44:53.424Z,3.20
2024-01-01T01:45:57.565Z,3.33
2024-01-01T01:47:04.679Z,4.13
2024-01-01T01:48:07.338Z,4.15
2024-01-01T01:49:09.934Z,3.88
2024-01-01T01:50:12.839Z,3.22
2024-01-01T01:51:15.219Z,3.22
2024-01-01T01:52:17.549Z,4.10
2024-01-01T01:53:25.986Z,3.40
2024-01-01T01:54:28.717Z,3.85
2024-01-01T01:55:30.744Z,3.97
2024-01-01T01:56:33.346Z,3.65
2024-01-01T01:57:38.065Z,4.20
2024-01-01T01:58:41.978Z,4.40
2024-01-01T01:59:45.419Z,3.50
2024-01-01T02:00:48.290Z,3.92
2024-01-01T02:01:51.666Z,5.85
2024-01-01T02:02:54.424Z,4.40
2024-01-01T02:03:56.464Z,4.20
2024-01-01T02:04:59.026Z,3.50
2024-01-01T02:06:01.670Z,2.58
2024-01-01T02:07:04.285Z,3.17
2024-01-01T02:08:07.807Z,3.13
2024-01-01T02:09:10.324Z,3.08
2024-01-01T02:10:14.412Z,3.40
2024-01-01T02:11:16.455Z,3.65
2024-01-01T02:12:18.494Z,4.55
2024-01-01T02:13:27.994Z,3.53
2024-01-01T02:14:30.307Z,3.70
2024-01-01T02:15:32.360Z,3.90
2024-01-01T02:16:34.361Z,3.30
2024-01-01T02:17:36.517Z,3.63
2024-01-01T02:18:38.606Z,4.40
2024-01-01T02:19:40.619Z,4.30
2024-01-01T02:20:42.619Z,4.00
2024-01-01T02:21:44.659Z,5.38
2024-01-01T02:22:46.601Z,4.97
2024-01-01T02:23:48.822Z,3.83
2024-01-01T02:24:50.798Z,4.40
2024-01-01T02:25:53.152Z,4.05
2024-01-01T02:26:55.146Z,4.63
2024-01-01T02:27:57.109Z,5.20
2024-01-01T02:28:59.097Z,3.97
2024-01-01T02:30:01.193Z,4.78
2024-01-01T02:31:03.151Z,3.97
2024-01-01T02:32:05.823Z,4.25
2024-01-01T02:33:09.307Z,3.63
2024-01-01T02:34:11.408Z,4.47
2024-01-01T02:35:13.410Z,3.80
2024-01-01T02:36:15.458Z,4.20
2024-01-01T02:37:17.638Z,3.70
2024-01-01T02:38:19.716Z,4.72
2024-01-01T02:39:21.780Z,4.10
2024-01-01T02:40:23.780Z,4.00
2024-01-01T02:41:25.804Z,4.07
2024-01-01T02:42:28.560Z,3.75
2024-01-01T02:43:30.692Z,3.75
2024-01-01T02:44:32.717Z,5.88
2024-01-01T02:45:35.256Z,5.22
2024-01-01T02:46:37.414Z,4.20
2024-01-01T02:47:40.620Z,4.22
2024-01-01T02:48:43.997Z,4.72
2024-01-01T02:49:45.991Z,4.93
2024-01-01T02:50:48.032Z,4.22
2024-01-01T02:51:50.006Z,5.75
2024-01-01T02:52:52.353Z,3.57
2024-01-01T02:53:54.379Z,5.47
2024-01-01T02:54:56.403Z,4.35
2024-01-01T02:55:58.380Z,3.70
2024-01-01T02:57:00.572Z,5.38
2024-01-01T02:58:04.138Z,3.27
2024-01-01T02:59:06.696Z,4.50
2024-01-01T03:00:11.770Z,4.25
2024-01-01T03:01:14.052Z,3.60
2024-01-01T03:02:18.052Z,3.45
2024-01-01T03:03:20.916Z,3.67
2024-01-01T03:04:22.951Z,4.78
2024-01-01T03:05:27.023Z,4.75
2024-01-01T03:06:29.082Z,4.00
2024-01-01T03:07:31.077Z,4.15
2024-01-01T03:08:32.972Z,3.28
2024-01-01T03:09:34.861Z,3.30
2024-01-01T03:10:37.288Z,4.47
2024-01-01T03:11:40.017Z,3.70
2024-01-01T03:12:42.284Z,3.45
2024-01-01T03:13:44.295Z,6.30
2024-01-01T03:14:46.389Z,4.57
2024-01-01T03:15:48.285Z,3.88
2024-01-01T03:16:50.340Z,5.60
2024-01-01T03:17:52.586Z,5.30
2024-01-01T03:18:54.832Z,3.90
2024-01-01T03:19:56.882Z,3.92
2024-01-01T03:20:58.914Z,3.93
2024-01-01T03:22:06.653Z,4.78
2024-01-01T03:23:08.519Z,4.45
2024-01-01T03:24:10.453Z,4.85
2024-01-01T03:25:12.792Z,5.45
2024-01-01T03:26:14.834Z,4.07
2024-01-01T03:27:16.921Z,3.67
2024-01-01T03:28:18.933Z,4.70
2024-01-01T03:29:20.783Z,4.68
2024-01-01T03:30:24.067Z,4.47
2024-01-01T03:31:26.866Z,3.90
2024-01-01T03:32:28.836Z,4.30
2024-01-01T03:33:35.000Z,3.63
2024-01-01T03:34:37.613Z,4.07
2024-01-01T03:35:39.543Z,3.95
2024-01-01T03:36:41.465Z,3.67
2024-01-01T03:37:44.349Z,4.35
2024-01-01T03:38:46.345Z,4.97
2024-01-01T03:39:48.262Z,3.83
2024-01-01T03:40:50.421Z,3.67
2024-01-01T03:41:52.587Z,4.90
2024-01-01T03:42:54.959Z,5.15
2024-01-01T03:43:58.035Z,3.60
2024-01-01T03:45:00.176Z,3.42
2024-01-01T03:46:02.724Z,4.90
2024-01-01T03:47:05.598Z,4.72
2024-01-01T03:48:08.953Z,3.63
2024-01-01T03:49:11.428Z,4.75
2024-01-01T03:50:15.805Z,4.27
2024-01-01T03:51:17.956Z,2.75
2024-01-01T03:52:20.219Z,3.53
2024-01-01T03:53:22.302Z,5.78
2024-01-01T03:54:24.303Z,4.57
2024-01-01T03:55:26.261Z,5.28
2024-01-01T03:56:28.360Z,3.97
2024-01-01T03:57:30.723Z,3.58
2024-01-01T03:58:33.216Z,4.00
2024-01-01T03:59:36.679Z,4.75
2024-01-01T04:00:38.868Z,5.10
2024-01-01T04:01:40.879Z,3.67
2024-01-01T04:02:42.945Z,3.63
2024-01-01T04:03:45.389Z,4.35
2024-01-01T04:04:47.572Z,4.07
2024-01-01T04:05:49.740Z,3.42
2024-01-01T04:06:51.830Z,4.40
2024-01-01T04:07:53.936Z,3.30
2024-01-01T04:08:55.997Z,3.35
2024-01-01T04:09:58.797Z,3.15
2024-01-01T04:11:00.811Z,3.28
2024-01-01T04:12:03.002Z,3.40
2024-01-01T04:13:05.102Z,4.00
2024-01-01T04:14:07.081Z,3.53
2024-01-01T04:15:09.365Z,3.88
2024-01-01T04:16:11.262Z,4.15
2024-01-01T04:17:13.564Z,4.00
2024-01-01T04:18:15.780Z,4.35
2024-01-01T04:19:17.962Z,3.72
2024-01-01T04:20:19.983Z,4.25
2024-01-01T04:21:21.904Z,3.42
2024-01-01T04:22:26.361Z,4.35
2024-01-01T04:23:28.776Z,3.53
2024-01-01T04:24:30.683Z,3.83
2024-01-01T04:25:32.831Z,3.95
2024-01-01T04:26:34.802Z,3.55
2024-01-01T04:27:36.972Z,3.67
2024-01-01T04:28:38.959Z,3.30
2024-01-01T04:29:40.951Z,3.40
2024-01-01T04:30:43.022Z,3.47
2024-01-01T04:31:46.617Z,3.45
2024-01-01T04:32:48.596Z,3.83
2024-01-01T04:33:50.570Z,3.65
2024-01-01T04:34:53.311Z,3.97
2024-01-01T04:35:55.253Z,3.00
2024-01-01T04:36:57.243Z,4.43
2024-01-01T04:37:59.479Z,3.10
2024-01-01T04:39:04.714Z,2.72
2024-01-01T04:40:07.605Z,3.45
2024-01-01T04:41:10.766Z,3.10
2024-01-01T04:42:12.910Z,2.53
2024-01-01T04:43:14.931Z,3.45
2024-01-01T04:44:16.984Z,3.40
2024-01-01T04:45:19.099Z,3.20
2024-01-01T04:46:21.079Z,3.25
2024-01-01T04:47:24.101Z,2.33
2024-01-01T04:48:26.680Z,4.40
2024-01-01T04:49:29.052Z,3.58
2024-01-01T04:50:32.699Z,3.00
2024-01-01T04:51:34.556Z,4.18
2024-01-01T04:52:36.940Z,4.15
2024-01-01T04:53:38.936Z,3.13
2024-01-01T04:54:40.898Z,3.33
2024-01-01T04:55:44.622Z,3.35
2024-01-01T04:56:46.780Z,3.55
2024-01-01T04:57:48.902Z,3.58
2024-01-01T04:58:53.643Z,3.60
2024-01-01T04:59:55.662Z,3.28
2024-01-01T05:00:57.741Z,4.85
2024-01-01T05:02:00.083Z,4.13
2024-01-01T05:03:02.289Z,4.05
2024-01-01T05:04:04.810Z,3.30
2024-01-01T05:05:09.682Z,3.30
2024-01-01T05:06:11.764Z,3.28
2024-01-01T05:07:13.688Z,3.85
2024-01-01T05:08:15.758Z,4.28
2024-01-01T05:09:17.844Z,4.40
2024-01-01T05:10:20.045Z,5.00
2024-01-01T05:11:22.079Z,4.63
2024-01-01T05:12:24.013Z,3.92
2024-01-01T05:13:26.356Z,4.10
2024-01-01T05:14:28.313Z,5.03
2024-01-01T05:15:30.499Z,4.43
2024-01-01T05:16:34.523Z,4.15
2024-01-01T05:17:36.479Z,4.13
2024-01-01T05:18:38.695Z,3.60
2024-01-01T05:19:40.797Z,4.00
2024-01-01T05:20:43.714Z,3.92
2024-01-01T05:21:45.707Z,4.47
2024-01-01T05:22:47.675Z,4.70
2024-01-01T05:23:49.677Z,4.25
2024-01-01T05:24:52.096Z,4.93
2024-01-01T05:25:54.403Z,4.23
2024-01-01T05:26:56.414Z,5.10
2024-01-01T05:27:58.421Z,3.97
2024-01-01T05:29:00.426Z,4.75
2024-01-01T05:30:05.899Z,4.10
2024-01-01T05:31:07.903Z,4.97
2024-01-01T05:32:09.847Z,3.97
2024-01-01T05:33:11.829Z,4.05
2024-01-01T05:34:16.722Z,4.35
2024-01-01T05:35:18.700Z,4.35
2024-01-01T05:36:20.903Z,4.25
2024-01-01T05:37:22.882Z,3.23
2024-01-01T05:38:24.838Z,3.75
2024-01-01T05:39:26.823Z,4.88
2024-01-01T05:40:28.843Z,9.95
2024-01-01T05:41:30.901Z,4.07
2024-01-01T05:42:33.070Z,3.63
2024-01-01T05:43:35.101Z,4.85
2024-01-01T05:44:37.130Z,5.95
2024-01-01T05:45:39.304Z,5.65
2024-01-01T05:46:41.250Z,4.13
2024-01-01T05:47:43.329Z,8.67
2024-01-01T05:48:45.820Z,5.97
2024-01-01T05:49:48.084Z,5.80
2024-01-01T05:50:50.497Z,5.13
2024-01-01T05:51:52.680Z,7.05
2024-01-01T05:52:54.637Z,4.93
2024-01-01T05:53:59.101Z,4.57
2024-01-01T05:55:01.042Z,4.30
2024-01-01T05:56:05.010Z,5.47
2024-01-01T05:57:07.348Z,5.97
2024-01-01T05:58:10.297Z,4.43
2024-01-01T05:59:12.371Z,4.57
2024-01-01T06:00:15.739Z,3.53
2024-01-01T06:01:18.419Z,7.25
2024-01-01T06:02:20.523Z,3.80
2024-01-01T06:03:22.899Z,4.03
2024-01-01T06:04:24.820Z,4.83
2024-01-01T06:05:26.894Z,3.58
2024-01-01T06:06:28.952Z,5.28
2024-01-01T06:07:30.862Z,4.85
2024-01-01T06:08:34.731Z,3.85
2024-01-01T06:09:36.780Z,4.60
2024-01-01T06:10:38.875Z,4.65
2024-01-01T06:11:40.812Z,4.20
2024-01-01T06:12:42.769Z,4.07
2024-01-01T06:13:46.174Z,4.03
2024-01-01T06:14:48.206Z,5.05
2024-01-01T06:15:51.428Z,3.80
2024-01-01T06:16:53.540Z,5.88
2024-01-01T06:17:55.791Z,4.47
2024-01-01T06:18:58.925Z,5.05
2024-01-01T06:20:01.029Z,3.08
2024-01-01T06:21:03.040Z,4.53
2024-01-01T06:22:05.568Z,3.60
2024-01-01T06:23:07.856Z,5.40
2024-01-01T06:24:09.795Z,3.90
2024-01-01T06:25:11.840Z,4.80
2024-01-01T06:26:15.357Z,4.30
2024-01-01T06:27:17.365Z,4.88
2024-01-01T06:28:20.102Z,5.88
2024-01-01T06:29:23.096Z,3.70
2024-01-01T06:30:25.209Z,7.28
2024-01-01T06:31:27.153Z,5.28
2024-01-01T06:32:29.218Z,5.80
2024-01-01T06:33:31.561Z,4.37
2024-01-01T06:34:33.530Z,4.90
2024-01-01T06:35:35.625Z,9.27
2024-01-01T06:36:37.480Z,5.47
2024-01-01T06:37:40.071Z,3.95
2024-01-01T06:38:42.116Z,4.40
2024-01-01T06:39:44.042Z,8.13
2024-01-01T06:40:46.068Z,4.07
2024-01-01T06:41:48.064Z,4.85
2024-01-01T06:42:50.087Z,5.78
2024-01-01T06:43:52.772Z,5.40
2024-01-01T06:45:01.111Z,4.95
2024-01-01T06:46:03.060Z,5.63
2024-01-01T06:47:05.709Z,4.72
2024-01-01T06:48:10.752Z,10.55
2024-01-01T06:49:13.081Z,6.28
2024-01-01T06:50:15.689Z,6.50
2024-01-01T06:51:17.693Z,7.05
2024-01-01T06:52:19.709Z,6.35
2024-01-01T06:53:21.739Z,6.20
2024-01-01T06:54:23.710Z,6.38
2024-01-01T06:55:29.217Z,8.70
2024-01-01T06:56:31.590Z,6.43
2024-01-01T06:57:34.466Z,6.13
2024-01-01T06:58:36.550Z,7.93
2024-01-01T06:59:38.687Z,6.20
2024-01-01T07:00:40.758Z,6.28
2024-01-01T07:01:44.529Z,7.05
2024-01-01T07:02:46.454Z,7.90
2024-01-01T07:03:48.498Z,4.90
2024-01-01T07:04:50.809Z,7.10
2024-01-01T07:05:52.834Z,8.52
2024-01-01T07:06:55.009Z,4.28
2024-01-01T07:07:57.132Z,6.88
2024-01-01T07:08:59.169Z,5.20
2024-01-01T07:10:01.500Z,13.18
2024-01-01T07:11:03.605Z,11.70
2024-01-01T07:12:22.688Z,19.13
2024-01-01T07:13:24.784Z,22.27
2024-01-01T07:14:26.857Z,22.10
2024-01-01T07:15:28.858Z,18.73
2024-01-01T07:16:31.094Z,20.77
2024-01-01T07:17:33.252Z,15.23
2024-01-01T07:18:35.510Z,16.10
2024-01-01T07:19:37.498Z,11.23
2024-01-01T07:20:39.423Z,8.18
2024-01-01T07:21:41.892Z,8.82
2024-01-01T07:22:43.835Z,7.43
2024-01-01T07:23:45.791Z,6.90
2024-01-01T07:24:47.959Z,6.95
2024-01-01T07:25:51.346Z,6.55
2024-01-01T07:26:53.463Z,6.55
2024-01-01T07:27:55.366Z,7.50
2024-01-01T07:28:57.375Z,5.20
2024-01-01T07:29:59.767Z,5.10
2024-01-01T07:31:02.116Z,5.15
2024-01-01T07:32:05.693Z,6.45
2024-01-01T07:33:07.956Z,8.52
2024-01-01T07:34:10.881Z,5.90
2024-01-01T07:35:12.887Z,4.60
2024-01-01T07:36:14.991Z,5.75
2024-01-01T07:37:16.910Z,4.63
2024-01-01T07:38:18.972Z,5.65
2024-01-01T07:39:20.970Z,4.80
2024-01-01T07:40:24.588Z,5.55
2024-01-01T07:41:26.811Z,6.00
2024-01-01T07:42:30.090Z,5.80
2024-01-01T07:43:32.048Z,5.80
2024-01-01T07:44:34.080Z,5.80
2024-01-01T07:45:36.023Z,5.55
2024-01-01T07:46:37.928Z,5.60
2024-01-01T07:47:40.000Z,7.03
2024-01-01T07:48:42.117Z,5.82
2024-01-01T07:49:46.086Z,6.30
2024-01-01T07:50:48.323Z,6.95
2024-01-01T07:51:50.835Z,5.32
2024-01-01T07:52:53.414Z,5.57
2024-01-01T07:53:58.655Z,4.78
2024-01-01T07:55:00.748Z,5.63
2024-01-01T07:56:06.045Z,5.30
2024-01-01T07:57:08.326Z,4.82
2024-01-01T07:58:10.350Z,5.38
2024-01-01T07:59:13.436Z,5.38
2024-01-01T08:00:17.034Z,6.32
2024-01-01T08:01:19.392Z,4.70
2024-01-01T08:02:23.394Z,4.07
2024-01-01T08:03:27.482Z,5.05
2024-01-01T08:04:29.648Z,5.05
2024-01-01T08:05:31.636Z,4.53
2024-01-01T08:06:33.748Z,5.10
2024-01-01T08:07:35.722Z,5.25
2024-01-01T08:08:37.761Z,4.28
2024-01-01T08:09:39.915Z,4.47
2024-01-01T08:10:41.893Z,5.45
2024-01-01T08:11:43.803Z,4.30
2024-01-01T08:12:45.840Z,4.25
2024-01-01T08:13:47.977Z,4.40
2024-01-01T08:14:49.897Z,3.90
2024-01-01T08:15:52.400Z,5.88
2024-01-01T08:16:54.385Z,4.40
2024-01-01T08:17:56.499Z,4.50
2024-01-01T08:18:58.825Z,4.68
2024-01-01T08:20:01.318Z,4.43
2024-01-01T08:21:03.701Z,4.10
2024-01-01T08:22:05.713Z,5.13
2024-01-01T08:23:08.067Z,3.88
2024-01-01T08:24:10.097Z,4.18
2024-01-01T08:25:11.974Z,4.30
2024-01-01T08:26:14.009Z,4.20
2024-01-01T08:27:15.981Z,4.05
2024-01-01T08:28:17.961Z,4.70
2024-01-01T08:29:19.997Z,4.40
2024-01-01T08:30:22.056Z,4.80
2024-01-01T08:31:25.130Z,4.95
2024-01-01T08:32:27.156Z,4.90
2024-01-01T08:33:29.572Z,3.97
2024-01-01T08:34:33.336Z,4.28
2024-01-01T08:35:37.777Z,3.85
2024-01-01T08:36:39.654Z,4.78
2024-01-01T08:37:43.458Z,4.63
2024-01-01T08:38:45.903Z,4.40
2024-01-01T08:39:47.866Z,4.00
2024-01-01T08:40:51.815Z,4.10
2024-01-01T08:41:53.703Z,4.70
2024-01-01T08:42:55.721Z,4.10
2024-01-01T08:44:00.575Z,3.80
2024-01-01T08:45:04.183Z,4.33
2024-01-01T08:46:06.564Z,4.03
2024-01-01T08:47:09.423Z,4.00
2024-01-01T08:48:11.911Z,3.92
2024-01-01T08:49:14.045Z,4.93
2024-01-01T08:50:16.601Z,4.03
2024-01-01T08:51:19.018Z,5.10
2024-01-01T08:52:21.033Z,3.40
2024-01-01T08:53:23.094Z,3.63
2024-01-01T08:54:25.081Z,3.30
2024-01-01T08:55:27.305Z,3.55
2024-01-01T08:56:29.492Z,5.03
2024-01-01T08:57:31.475Z,5.05
2024-01-01T08:58:33.400Z,3.72
2024-01-01T08:59:35.292Z,3.72
2024-01-01T09:00:37.305Z,3.05
2024-01-01T09:01:39.506Z,4.80
2024-01-01T09:02:41.471Z,3.13
2024-01-01T09:03:43.519Z,4.95
2024-01-01T09:04:45.593Z,4.25
2024-01-01T09:05:47.944Z,3.58
2024-01-01T09:06:50.144Z,3.80
2024-01-01T09:07:52.130Z,2.92
2024-01-01T09:08:54.247Z,4.53
2024-01-01T09:09:56.278Z,2.75
2024-01-01T09:10:58.326Z,2.35
2024-01-01T09:12:00.278Z,2.60
2024-01-01T09:13:02.188Z,2.60
2024-01-01T09:14:04.454Z,2.20
2024-01-01T09:15:06.817Z,3.42
2024-01-01T09:16:08.874Z,1.83
2024-01-01T09:17:11.720Z,2.15
2024-01-01T09:18:14.286Z,2.92
2024-01-01T09:19:17.093Z,2.97
2024-01-01T09:20:19.843Z,2.60
2024-01-01T09:21:21.857Z,2.67
2024-01-01T09:22:24.093Z,3.08
2024-01-01T09:23:28.065Z,3.07
2024-01-01T09:24:29.947Z,3.60
2024-01-01T09:25:31.950Z,3.17
2024-01-01T09:26:35.574Z,2.53
2024-01-01T09:27:37.758Z,3.28
2024-01-01T09:28:39.789Z,2.40
2024-01-01T09:29:41.749Z,3.30
2024-01-01T09:30:43.909Z,3.45
2024-01-01T09:31:46.006Z,2.75
2024-01-01T09:32:48.229Z,2.72
2024-01-01T09:33:50.350Z,2.72
2024-01-01T09:34:52.558Z,2.80
2024-01-01T09:35:56.352Z,3.30
2024-01-01T09:37:03.752Z,2.35
2024-01-01T09:38:06.920Z,3.72
2024-01-01T09:39:09.237Z,2.50
2024-01-01T09:40:12.797Z,3.28
2024-01-01T09:41:14.843Z,2.90
2024-01-01T09:42:17.097Z,3.03
2024-01-01T09:43:19.649Z,3.45
2024-01-01T09:44:22.050Z,2.95
2024-01-01T09:45:26.178Z,4.05
2024-01-01T09:46:34.104Z,3.88
2024-01-01T09:47:36.898Z,2.20
2024-01-01T09:48:39.107Z,2.20
2024-01-01T09:49:41.839Z,1.83
2024-01-01T09:50:49.730Z,5.20
2024-01-01T09:51:54.661Z,2.85
2024-01-01T09:53:02.295Z,2.58
2024-01-01T09:54:04.305Z,3.75
2024-01-01T09:55:06.474Z,5.03
2024-01-01T09:56:08.535Z,3.70
2024-01-01T09:57:10.560Z,3.67
2024-01-01T09:58:12.583Z,2.95
2024-01-01T09:59:39.185Z,3.17
2024-01-01T10:00:43.295Z,2.40
2024-01-01T10:02:03.680Z,3.00
2024-01-01T10:03:12.308Z,3.50
2024-01-01T10:04:14.497Z,3.25
2024-01-01T10:05:18.144Z,3.00
2024-01-01T10:06:20.074Z,2.50
2024-01-01T10:07:28.507Z,2.97
2024-01-01T10:08:30.565Z,3.78
2024-01-01T10:09:33.997Z,2.77
2024-01-01T10:10:36.105Z,2.45
2024-01-01T10:11:42.942Z,2.78
2024-01-01T10:12:47.039Z,3.25
2024-01-01T10:13:49.340Z,2.63
2024-01-01T10:14:52.433Z,4.53
2024-01-01T10:15:57.408Z,3.08
2024-01-01T10:17:21.825Z,3.03
2024-01-01T10:18:25.324Z,3.30
2024-01-01T10:19:32.948Z,3.90
2024-01-01T10:20:39.232Z,3.90
2024-01-01T10:21:41.570Z,3.05
2024-01-01T10:22:43.690Z,2.92
2024-01-01T10:23:45.577Z,4.28
2024-01-01T10:24:49.082Z,2.60
2024-01-01T10:26:06.042Z,2.83
2024-01-01T10:27:09.014Z,5.63
2024-01-01T10:28:11.884Z,3.88
2024-01-01T10:29:15.920Z,3.03
2024-01-01T10:30:18.003Z,3.15
2024-01-01T10:31:20.139Z,2.38
2024-01-01T10:32:22.799Z,3.00
2024-01-01T10:33:27.094Z,2.53
2024-01-01T10:34:33.203Z,2.65
2024-01-01T10:35:35.230Z,2.70
2024-01-01T10:36:37.392Z,2.80
2024-01-01T10:37:40.969Z,3.08
2024-01-01T10:38:44.631Z,3.28
2024-01-01T10:39:48.366Z,3.95
2024-01-01T10:40:51.732Z,2.72
2024-01-01T10:41:53.747Z,2.30
2024-01-01T10:42:57.268Z,2.22
2024-01-01T10:43:59.880Z,3.78
2024-01-01T10:45:05.336Z,2.70
2024-01-01T10:46:07.306Z,3.17
2024-01-01T10:47:10.970Z,3.38
2024-01-01T10:48:15.855Z,2.75
2024-01-01T10:49:25.481Z,3.42
2024-01-01T10:50:40.920Z,3.67
2024-01-01T10:52:14.575Z,3.10
2024-01-01T10:53:43.281Z,2.83
2024-01-01T10:55:31.192Z,3.45
2024-01-01T10:56:47.985Z,2.58
2024-01-01T10:58:11.250Z,3.70
2024-01-01T10:59:25.416Z,2.15
2024-01-01T11:00:39.734Z,2.92
2024-01-01T11:01:42.713Z,3.00
2024-01-01T11:02:45.747Z,3.22
2024-01-01T11:03:49.379Z,3.72
2024-01-01T11:05:10.255Z,3.23
2024-01-01T11:06:22.609Z,3.35
2024-01-01T11:08:01.809Z,3.17
2024-01-01T11:09:22.357Z,2.78
2024-01-01T11:10:45.199Z,3.20
2024-01-01T11:11:55.498Z,2.30
2024-01-01T11:12:59.204Z,3.10
2024-01-01T11:14:01.758Z,3.65
2024-01-01T11:15:41.598Z,3.55
2024-01-01T11:17:57.087Z,3.15
2024-01-01T11:18:59.302Z,2.13
2024-01-01T11:20:01.434Z,2.10
2024-01-01T11:21:06.597Z,5.15
2024-01-01T11:22:37.382Z,3.60
2024-01-01T11:23:42.716Z,3.65
2024-01-01T11:24:46.367Z,3.70
2024-01-01T11:25:48.446Z,2.73
2024-01-01T11:26:50.432Z,3.67
2024-01-01T11:27:52.706Z,3.30
2024-01-01T11:29:19.160Z,3.33
2024-01-01T11:30:21.309Z,3.15
2024-01-01T11:31:24.890Z,5.03
2024-01-01T11:32:27.064Z,2.90
2024-01-01T11:33:29.734Z,2.10
2024-01-01T11:34:40.429Z,3.05
2024-01-01T11:35:49.298Z,2.72
2024-01-01T11:36:53.429Z,2.83
2024-01-01T11:38:00.190Z,2.80
2024-01-01T11:39:03.982Z,3.07
2024-01-01T11:40:07.538Z,2.78
2024-01-01T11:41:09.790Z,3.80
2024-01-01T11:42:18.754Z,2.58
2024-01-01T11:43:22.648Z,3.35
2024-01-01T11:44:27.171Z,3.30
2024-01-01T11:45:29.330Z,3.33
2024-01-01T11:46:31.316Z,3.08
2024-01-01T11:47:34.150Z,3.50
2024-01-01T11:48:37.914Z,3.05
2024-01-01T11:49:39.932Z,3.78
2024-01-01T11:50:41.923Z,4.55
2024-01-01T11:51:59.843Z,3.95
2024-01-01T11:53:02.125Z,2.45
2024-01-01T11:54:05.454Z,2.95
2024-01-01T11:55:07.508Z,4.57
2024-01-01T11:56:09.705Z,4.00
2024-01-01T11:57:12.894Z,3.03
2024-01-01T11:58:15.044Z,3.05
2024-01-01T11:59:18.251Z,3.30
2024-01-01T12:00:22.002Z,3.75
2024-01-01T12:01:24.426Z,4.03
2024-01-01T12:02:26.958Z,4.00
2024-01-01T12:03:29.057Z,2.17
2024-01-01T12:04:31.584Z,2.67
2024-01-01T12:05:34.353Z,3.78
2024-01-01T12:06:37.040Z,3.65
2024-01-01T12:07:39.373Z,2.95
2024-01-01T12:08:41.324Z,3.10
2024-01-01T12:09:44.231Z,4.90
2024-01-01T12:10:46.185Z,3.05
2024-01-01T12:11:48.157Z,3.78
2024-01-01T12:13:00.557Z,3.75
2024-01-01T12:14:03.767Z,6.40
2024-01-01T12:15:09.031Z,3.00
2024-01-01T12:16:18.072Z,2.85
2024-01-01T12:17:20.038Z,3.13
2024-01-01T12:18:22.119Z,4.32
2024-01-01T12:19:24.916Z,3.42
2024-01-01T12:20:27.234Z,2.65
2024-01-01T12:21:45.931Z,2.73
2024-01-01T12:22:50.377Z,3.42
2024-01-01T12:24:04.557Z,3.60
2024-01-01T12:25:07.540Z,3.13
2024-01-01T12:26:09.441Z,3.28
2024-01-01T12:27:15.961Z,3.40
2024-01-01T12:28:17.951Z,3.43
2024-01-01T12:29:21.888Z,4.05
2024-01-01T12:30:28.660Z,4.13
2024-01-01T12:31:30.862Z,3.15
2024-01-01T12:32:33.077Z,2.92
2024-01-01T12:33:35.173Z,3.80
2024-01-01T12:34:37.066Z,3.83
2024-01-01T12:35:39.009Z,2.97
2024-01-01T12:36:42.069Z,2.67
2024-01-01T12:37:47.336Z,3.63
2024-01-01T12:38:49.503Z,4.35
2024-01-01T12:39:51.919Z,2.40
2024-01-01T12:40:54.112Z,2.20
2024-01-01T12:41:56.295Z,2.53
2024-01-01T12:42:59.286Z,4.05
2024-01-01T12:44:01.791Z,2.85
2024-01-01T12:45:04.014Z,3.03
2024-01-01T12:46:06.214Z,3.03
2024-01-01T12:47:08.345Z,3.63
2024-01-01T12:48:10.891Z,3.25
2024-01-01T12:49:12.889Z,2.75
2024-01-01T12:50:15.091Z,2.60
2024-01-01T12:51:18.501Z,3.17
2024-01-01T12:52:22.360Z,2.85
2024-01-01T12:53:24.484Z,2.47
2024-01-01T12:54:26.661Z,3.13
2024-01-01T12:55:28.573Z,2.63
2024-01-01T12:56:30.585Z,3.25
2024-01-01T12:57:32.643Z,2.85
2024-01-01T12:58:34.614Z,3.67
2024-01-01T12:59:36.599Z,2.97
2024-01-01T13:00:39.032Z,3.10
2024-01-01T13:01:41.550Z,2.42
2024-01-01T13:02:43.644Z,3.80
2024-01-01T13:03:47.577Z,3.35
2024-01-01T13:04:49.711Z,4.50
2024-01-01T13:05:51.845Z,3.53
2024-01-01T13:06:55.431Z,3.40
2024-01-01T13:07:57.550Z,2.83
2024-01-01T13:08:59.496Z,2.88
2024-01-01T13:10:02.346Z,3.13
2024-01-01T13:11:07.137Z,2.93
2024-01-01T13:12:09.145Z,1.98
2024-01-01T13:13:11.027Z,2.70
2024-01-01T13:14:12.950Z,2.72
2024-01-01T13:15:14.949Z,2.80
2024-01-01T13:16:16.843Z,2.07
2024-01-01T13:17:18.986Z,3.63
2024-01-01T13:18:21.110Z,1.48
2024-01-01T13:19:25.356Z,3.13
2024-01-01T13:20:27.406Z,3.15
2024-01-01T13:21:30.786Z,4.32
2024-01-01T13:22:32.848Z,3.30
2024-01-01T13:23:34.988Z,2.90
2024-01-01T13:24:39.123Z,2.58
2024-01-01T13:25:41.213Z,2.53
2024-01-01T13:26:43.158Z,3.63
2024-01-01T13:27:45.234Z,2.23
2024-01-01T13:28:47.192Z,3.13
2024-01-01T13:29:49.383Z,2.65
2024-01-01T13:30:52.546Z,2.85
2024-01-01T13:31:54.571Z,3.30
2024-01-01T13:32:56.612Z,3.30
2024-01-01T13:33:59.132Z,3.40
2024-01-01T13:35:01.165Z,2.33
2024-01-01T13:36:03.865Z,3.10
2024-01-01T13:37:06.080Z,3.38
2024-01-01T13:38:08.518Z,3.60
2024-01-01T13:39:10.387Z,2.28
2024-01-01T13:40:12.881Z,3.03
2024-01-01T13:41:14.937Z,2.60
2024-01-01T13:42:16.810Z,2.92
2024-01-01T13:43:20.472Z,3.33
2024-01-01T13:44:22.599Z,2.58
2024-01-01T13:45:24.541Z,3.05
2024-01-01T13:46:26.669Z,3.33
2024-01-01T13:47:28.734Z,3.30
2024-01-01T13:48:30.976Z,2.80
2024-01-01T13:49:36.526Z,3.00
2024-01-01T13:50:41.359Z,3.03
2024-01-01T13:51:43.671Z,3.63
2024-01-01T13:52:46.708Z,3.72
2024-01-01T13:53:48.552Z,4.05
2024-01-01T13:54:50.515Z,3.80
2024-01-01T13:55:53.012Z,4.00
2024-01-01T13:56:54.975Z,3.28
2024-01-01T13:57:57.404Z,3.63
2024-01-01T13:58:59.345Z,2.70
2024-01-01T14:00:01.482Z,2.80
2024-01-01T14:01:04.736Z,2.95
2024-01-01T14:02:08.465Z,3.22